createdAt,value
2022-11-28T00:01:39.921Z,28.08
2022-11-28T00:04:08.113Z,21.48
2022-11-28T00:06:38.692Z,30.80
2022-11-28T00:09:06.428Z,29.77
2022-11-28T00:11:33.160Z,22.38
2022-11-28T00:14:00.191Z,26.63
2022-11-28T00:16:26.912Z,24.60
2022-11-28T00:18:55.112Z,30.48
2022-11-28T00:21:22.963Z,25.80
2022-11-28T00:23:50.114Z,29.85
2022-11-28T00:26:19.207Z,34.63
2022-11-28T00:28:48.948Z,19.42
2022-11-28T00:31:21.457Z,20.27
2022-11-28T00:33:50.934Z,26.25
2022-11-28T00:36:26.988Z,13.98
2022-11-28T00:38:54.426Z,21.48
2022-11-28T00:41:24.051Z,24.83
2022-11-28T00:43:51.786Z,28.05
2022-11-28T00:46:20.419Z,23.75
2022-11-28T00:48:48.014Z,19.65
2022-11-28T00:51:18.244Z,32.08
2022-11-28T00:53:48.115Z,28.27
2022-11-28T00:56:19.332Z,22.88
2022-11-28T00:58:47.789Z,20.38
2022-11-28T01:01:17.815Z,17.60
2022-11-28T01:03:46.270Z,24.25
2022-11-28T01:06:13.155Z,14.30
2022-11-28T01:08:39.913Z,21.88
2022-11-28T01:11:12.658Z,24.05
2022-11-28T01:13:40.341Z,23.00
2022-11-28T01:16:07.800Z,24.05
2022-11-28T01:18:34.862Z,23.38
2022-11-28T01:21:02.363Z,24.60
2022-11-28T01:23:29.083Z,27.08
2022-11-28T01:25:55.811Z,32.67
2022-11-28T01:28:22.787Z,17.73
2022-11-28T01:30:49.634Z,20.50
2022-11-28T01:33:16.319Z,17.88
2022-11-28T01:35:54.359Z,24.33
2022-11-28T01:38:21.078Z,18.15
2022-11-28T01:40:47.733Z,15.73
2022-11-28T01:43:14.548Z,17.77
2022-11-28T01:45:41.816Z,18.02
2022-11-28T01:48:11.521Z,23.50
2022-11-28T01:50:38.985Z,26.83
2022-11-28T01:53:10.312Z,22.30
2022-11-28T01:58:09.581Z,14.32
2022-11-28T02:00:36.279Z,21.17
2022-11-28T02:03:13.159Z,18.02
2022-11-28T02:05:40.472Z,15.82
2022-11-28T02:08:09.054Z,17.65
2022-11-28T02:11:09.770Z,18.77
2022-11-28T02:14:11.938Z,26.47
2022-11-28T02:17:00.340Z,22.85
2022-11-28T02:19:45.781Z,27.65
2022-11-28T02:22:29.376Z,21.02
2022-11-28T02:25:33.655Z,23.60
2022-11-28T02:28:12.334Z,18.98
2022-11-28T02:30:49.989Z,22.58
2022-11-28T02:33:19.692Z,13.55
2022-11-28T02:36:10.392Z,16.23
2022-11-28T02:39:13.227Z,19.17
2022-11-28T02:41:47.579Z,29.45
2022-11-28T02:44:19.233Z,24.85
2022-11-28T02:47:23.549Z,18.08
2022-11-28T02:50:09.056Z,16.13
2022-11-28T02:52:59.082Z,14.10
2022-11-28T02:55:26.805Z,14.57
2022-11-28T02:57:54.862Z,16.90
2022-11-28T03:00:33.084Z,19.27
2022-11-28T03:03:11.933Z,12.27
2022-11-28T03:05:58.262Z,18.63
2022-11-28T03:08:50.248Z,21.00
2022-11-28T03:11:42.955Z,16.55
2022-11-28T03:14:46.548Z,20.67
2022-11-28T03:17:22.328Z,11.93
2022-11-28T03:19:49.010Z,11.27
2022-11-28T03:22:36.905Z,12.32
2022-11-28T03:25:47.118Z,14.73
2022-11-28T03:28:43.445Z,29.58
2022-11-28T03:31:38.702Z,10.35
2022-11-28T03:34:12.129Z,19.70
2022-11-28T03:36:43.019Z,15.65
2022-11-28T03:39:14.628Z,14.70
2022-11-28T03:41:48.383Z,21.70
2022-11-28T03:44:21.525Z,14.13
2022-11-28T03:46:50.117Z,11.32
2022-11-28T03:49:23.912Z,20.85
2022-11-28T03:51:59.542Z,12.55
2022-11-28T03:54:37.444Z,17.65
2022-11-28T03:57:19.057Z,23.02
2022-11-28T03:59:54.274Z,13.52
2022-11-28T04:02:31.625Z,15.75
2022-11-28T04:04:58.400Z,13.50
2022-11-28T04:07:40.329Z,13.27
2022-11-28T04:10:21.444Z,11.10
2022-11-28T04:13:20.620Z,24.52
2022-11-28T04:16:03.489Z,11.88
2022-11-28T04:19:08.162Z,18.50
2022-11-28T04:21:43.579Z,14.23
2022-11-28T04:24:21.730Z,17.52
2022-11-28T04:26:54.743Z,12.68
2022-11-28T04:29:23.784Z,11.93
2022-11-28T04:31:55.680Z,11.20
2022-11-28T04:34:24.428Z,21.65
2022-11-28T04:36:52.566Z,9.15
2022-11-28T04:39:21.852Z,9.15
2022-11-28T04:42:00.082Z,10.35
2022-11-28T04:44:37.526Z,8.57
2022-11-28T04:47:05.089Z,11.45
2022-11-28T04:49:32.347Z,22.38
2022-11-28T04:52:03.165Z,13.32
2022-11-28T04:54:52.157Z,7.13
2022-11-28T04:57:33.631Z,13.70
2022-11-28T05:02:29.331Z,10.52
2022-11-28T05:04:56.514Z,17.25
2022-11-28T05:07:24.257Z,16.67
2022-11-28T05:09:51.530Z,14.02
2022-11-28T05:12:18.180Z,18.40
2022-11-28T05:14:44.945Z,19.38
2022-11-28T05:17:13.478Z,8.93
2022-11-28T05:19:40.217Z,13.90
2022-11-28T05:22:06.865Z,17.10
2022-11-28T05:24:33.587Z,17.77
2022-11-28T05:27:00.715Z,9.95
2022-11-28T05:29:27.445Z,12.30
2022-11-28T05:31:54.234Z,12.05
2022-11-28T05:34:21.094Z,11.68
2022-11-28T05:36:47.726Z,14.88
2022-11-28T05:39:14.456Z,12.07
2022-11-28T05:41:42.402Z,12.50
2022-11-28T05:44:10.213Z,14.07
2022-11-28T05:46:36.911Z,15.23
2022-11-28T05:49:03.685Z,20.40
2022-11-28T05:51:30.567Z,18.05
2022-11-28T05:53:57.356Z,12.07
2022-11-28T05:56:24.083Z,16.05
2022-11-28T05:58:52.733Z,13.43
2022-11-28T06:01:22.899Z,23.33
2022-11-28T06:03:49.626Z,16.45
2022-11-28T06:06:21.711Z,16.75
2022-11-28T06:08:51.559Z,12.50
2022-11-28T06:11:19.939Z,8.13
2022-11-28T06:13:48.410Z,12.10
2022-11-28T06:16:18.080Z,16.88
2022-11-28T06:18:46.802Z,13.27
2022-11-28T06:21:15.097Z,15.57
2022-11-28T06:23:42.520Z,8.02
2022-11-28T06:26:14.945Z,19.77
2022-11-28T06:28:42.257Z,13.70
2022-11-28T06:31:17.973Z,15.60
2022-11-28T06:33:45.088Z,11.00
2022-11-28T06:36:13.383Z,16.58
2022-11-28T06:38:40.292Z,10.68
2022-11-28T06:41:10.255Z,9.57
2022-11-28T06:43:37.824Z,8.50
2022-11-28T06:46:04.693Z,8.20
2022-11-28T06:48:32.268Z,11.30
2022-11-28T06:51:03.851Z,12.68
2022-11-28T06:53:31.685Z,8.60
2022-11-28T06:56:03.645Z,10.25
2022-11-28T06:58:30.342Z,14.35
2022-11-28T07:00:57.105Z,9.02
2022-11-28T07:03:23.848Z,5.60
2022-11-28T07:05:50.496Z,11.50
2022-11-28T07:08:17.365Z,14.98
2022-11-28T07:10:44.016Z,15.75
2022-11-28T07:13:10.711Z,15.15
2022-11-28T07:15:37.338Z,12.10
2022-11-28T07:18:04.035Z,13.73
2022-11-28T07:20:30.687Z,15.00
2022-11-28T07:22:57.359Z,10.98
2022-11-28T07:25:24.095Z,9.02
2022-11-28T07:27:50.841Z,10.63
2022-11-28T07:30:17.499Z,12.55
2022-11-28T07:32:44.253Z,11.52
2022-11-28T07:35:12.194Z,9.18
2022-11-28T07:37:38.894Z,13.55
2022-11-28T07:40:06.298Z,20.88
2022-11-28T07:42:33.074Z,13.35
2022-11-28T07:45:06.647Z,9.80
2022-11-28T07:47:33.987Z,10.20
2022-11-28T07:50:00.703Z,9.10
2022-11-28T07:52:27.427Z,11.30
2022-11-28T07:54:54.165Z,10.43
2022-11-28T07:57:20.892Z,6.80
2022-11-28T07:59:47.587Z,11.38
2022-11-28T08:02:14.393Z,11.40
2022-11-28T08:04:47.761Z,11.50
2022-11-28T08:07:17.314Z,10.80
2022-11-28T08:09:44.462Z,8.10
2022-11-28T08:12:11.458Z,11.88
2022-11-28T08:14:38.147Z,7.80
2022-11-28T08:17:04.930Z,12.13
2022-11-28T08:19:35.060Z,13.68
2022-11-28T08:22:02.735Z,14.07
2022-11-28T08:24:29.613Z,15.38
2022-11-28T08:26:57.054Z,10.10
2022-11-28T08:29:23.731Z,8.70
2022-11-28T08:31:50.444Z,9.93
2022-11-28T08:34:17.216Z,11.25
2022-11-28T08:36:44.304Z,9.25
2022-11-28T08:39:27.538Z,6.55
2022-11-28T08:41:59.000Z,10.30
2022-11-28T08:46:53.588Z,8.48
2022-11-28T08:49:20.870Z,12.07
2022-11-28T08:51:47.536Z,7.57
2022-11-28T08:54:14.866Z,6.38
2022-11-28T08:56:41.562Z,6.15
2022-11-28T08:59:08.324Z,11.73
2022-11-28T09:01:35.122Z,5.72
2022-11-28T09:04:02.308Z,12.82
2022-11-28T09:06:29.208Z,7.68
2022-11-28T09:08:56.019Z,8.55
2022-11-28T09:11:23.463Z,8.35
2022-11-28T09:13:51.156Z,8.18
2022-11-28T09:16:18.088Z,17.52
2022-11-28T09:18:45.053Z,8.93
2022-11-28T09:21:14.381Z,9.90
2022-11-28T09:23:43.368Z,10.10
2022-11-28T09:26:11.833Z,9.88
2022-11-28T09:28:38.826Z,13.50
2022-11-28T09:31:06.801Z,13.20
2022-11-28T09:33:34.241Z,10.70
2022-11-28T09:36:13.079Z,14.52
2022-11-28T09:38:39.950Z,15.10
2022-11-28T09:41:28.436Z,13.02
2022-11-28T09:44:18.023Z,9.48
2022-11-28T09:46:48.095Z,10.60
2022-11-28T09:49:43.502Z,11.43
2022-11-28T09:52:14.944Z,6.38
2022-11-28T09:57:26.322Z,7.10
2022-11-28T09:59:53.245Z,8.93
2022-11-28T10:02:32.098Z,7.82
2022-11-28T10:05:05.177Z,6.88
2022-11-28T10:08:13.965Z,9.40
2022-11-28T10:10:58.126Z,12.00
2022-11-28T10:14:00.267Z,10.43
2022-11-28T10:16:51.337Z,8.40
2022-11-28T10:22:20.346Z,7.18
2022-11-28T10:24:57.562Z,6.03
2022-11-28T10:27:33.036Z,6.50
2022-11-28T10:30:06.165Z,10.68
2022-11-28T10:32:44.833Z,11.57
2022-11-28T10:35:28.516Z,6.95
2022-11-28T10:37:56.310Z,7.47
2022-11-28T10:40:35.231Z,7.65
2022-11-28T10:43:06.275Z,6.55
2022-11-28T10:45:46.812Z,13.48
2022-11-28T10:48:40.612Z,9.65
2022-11-28T10:51:26.750Z,5.43
2022-11-28T10:54:16.780Z,8.45
2022-11-28T10:57:07.148Z,5.68
2022-11-28T10:59:49.482Z,9.82
2022-11-28T11:02:40.856Z,8.90
2022-11-28T11:05:13.375Z,8.32
2022-11-28T11:07:47.645Z,9.00
2022-11-28T11:10:19.554Z,7.25
2022-11-28T11:12:49.801Z,7.30
2022-11-28T11:15:24.837Z,4.80
2022-11-28T11:17:52.047Z,11.10
2022-11-28T11:20:33.745Z,6.30
2022-11-28T11:23:21.940Z,10.15
2022-11-28T11:25:58.266Z,5.93
2022-11-28T11:28:32.549Z,6.75
2022-11-28T11:31:05.049Z,7.35
2022-11-28T11:33:37.074Z,9.25
2022-11-28T11:36:19.026Z,9.57
2022-11-28T11:38:45.763Z,11.68
2022-11-28T11:41:42.724Z,10.90
2022-11-28T11:44:15.210Z,11.38
2022-11-28T11:46:54.886Z,13.65
2022-11-28T11:49:33.195Z,11.80
2022-11-28T11:52:04.744Z,7.35
2022-11-28T11:54:31.673Z,11.35
2022-11-28T11:57:24.878Z,8.60
2022-11-28T11:59:53.022Z,9.27
2022-11-28T12:02:27.912Z,9.60
2022-11-28T12:05:09.901Z,13.35
2022-11-28T12:07:47.106Z,8.13
2022-11-28T12:10:19.576Z,9.10
2022-11-28T12:12:46.228Z,8.93
2022-11-28T12:15:19.757Z,10.80
2022-11-28T12:18:12.689Z,12.60
2022-11-28T12:20:39.490Z,8.65
2022-11-28T12:23:17.555Z,10.43
2022-11-28T12:25:55.895Z,10.13
2022-11-28T12:28:43.487Z,8.85
2022-11-28T12:31:31.701Z,5.70
2022-11-28T12:34:11.603Z,4.68
2022-11-28T12:37:00.797Z,6.05
2022-11-28T12:39:49.322Z,10.13
2022-11-28T12:42:53.540Z,8.27
2022-11-28T12:45:28.980Z,8.43
2022-11-28T12:48:01.790Z,6.93
2022-11-28T12:50:39.600Z,7.60
2022-11-28T12:53:18.071Z,5.93
2022-11-28T12:55:53.534Z,8.45
2022-11-28T12:58:29.734Z,7.00
2022-11-28T13:01:35.403Z,6.28
2022-11-28T13:04:39.014Z,8.13
2022-11-28T13:07:27.443Z,3.20
2022-11-28T13:10:12.229Z,6.65
2022-11-28T13:12:46.218Z,6.75
2022-11-28T13:15:21.251Z,3.17
2022-11-28T13:17:53.415Z,7.30
2022-11-28T13:20:28.752Z,4.25
2022-11-28T13:23:01.181Z,6.57
2022-11-28T13:25:59.984Z,6.82
2022-11-28T13:28:42.689Z,12.88
2022-11-28T13:31:25.518Z,12.88
2022-11-28T13:33:57.144Z,7.38
2022-11-28T13:39:34.635Z,6.10
2022-11-28T13:43:04.050Z,5.43
2022-11-28T13:45:42.218Z,6.00
2022-11-28T13:48:57.299Z,8.60
2022-11-28T13:51:30.882Z,7.50
2022-11-28T13:54:21.760Z,6.00
2022-11-28T13:57:05.387Z,7.95
2022-11-28T13:59:33.851Z,14.15
2022-11-28T14:02:03.876Z,10.43
2022-11-28T14:04:32.748Z,8.77
2022-11-28T14:07:06.556Z,7.85
2022-11-28T14:10:01.380Z,8.00
2022-11-28T14:12:36.226Z,8.63
2022-11-28T14:15:07.236Z,9.75
2022-11-28T14:17:54.520Z,10.75
2022-11-28T14:20:38.772Z,11.18
2022-11-28T14:23:22.771Z,9.73
2022-11-28T14:25:52.251Z,12.15
2022-11-28T14:28:30.552Z,9.43
2022-11-28T14:31:31.085Z,17.35
2022-11-28T14:34:04.714Z,8.65
2022-11-28T14:36:37.405Z,10.48
2022-11-28T14:39:13.054Z,13.43
2022-11-28T14:42:04.763Z,13.05
2022-11-28T14:44:45.650Z,14.27
2022-11-28T14:47:21.355Z,11.77
2022-11-28T14:50:06.829Z,11.25
2022-11-28T14:52:39.651Z,13.15
2022-11-28T14:55:08.191Z,8.88
2022-11-28T14:57:37.508Z,14.43
2022-11-28T15:00:15.225Z,10.85
2022-11-28T15:03:07.764Z,8.52
2022-11-28T15:08:36.861Z,11.10
2022-11-28T15:11:04.099Z,14.18
2022-11-28T15:13:46.028Z,14.73
2022-11-28T15:16:17.623Z,15.13
2022-11-28T15:19:08.342Z,9.52
2022-11-28T15:21:43.920Z,13.93
2022-11-28T15:24:36.194Z,14.88
2022-11-28T15:27:09.185Z,10.23
2022-11-28T15:29:36.941Z,13.50
2022-11-28T15:32:05.148Z,14.10
2022-11-28T15:34:34.984Z,14.60
2022-11-28T15:37:15.079Z,15.77
2022-11-28T15:39:45.440Z,9.45
2022-11-28T15:42:34.680Z,11.52
2022-11-28T15:45:22.711Z,10.93
2022-11-28T15:47:51.767Z,13.95
2022-11-28T15:50:25.178Z,13.05
2022-11-28T15:53:04.658Z,12.13
2022-11-28T15:55:33.926Z,20.77
2022-11-28T15:58:23.584Z,16.75
2022-11-28T16:00:58.150Z,12.82
2022-11-28T16:03:29.106Z,12.10
2022-11-28T16:05:57.967Z,17.73
2022-11-28T16:08:33.804Z,12.38
2022-11-28T16:11:05.273Z,6.68
2022-11-28T16:13:32.977Z,18.35
2022-11-28T16:16:04.212Z,11.43
2022-11-28T16:21:00.882Z,17.08
2022-11-28T16:23:32.516Z,18.38
2022-11-28T16:26:05.004Z,9.38
2022-11-28T16:28:38.971Z,13.13
2022-11-28T16:31:13.534Z,15.52
2022-11-28T16:33:47.863Z,10.88
2022-11-28T16:36:34.005Z,9.50
2022-11-28T16:39:09.940Z,12.38
2022-11-28T16:41:41.027Z,4.82
2022-11-28T16:44:14.353Z,9.70
2022-11-28T16:46:58.741Z,6.80
2022-11-28T16:49:44.866Z,6.55
2022-11-28T16:52:15.452Z,7.93
2022-11-28T16:54:42.275Z,6.57
2022-11-28T16:57:11.205Z,11.05
2022-11-28T16:59:38.038Z,9.10
2022-11-28T17:02:13.548Z,10.20
2022-11-28T17:04:40.462Z,5.40
2022-11-28T17:07:11.146Z,7.43
2022-11-28T17:09:37.847Z,6.30
2022-11-28T17:12:08.243Z,8.63
2022-11-28T17:14:35.292Z,13.75
2022-11-28T17:17:02.039Z,15.82
2022-11-28T17:19:29.108Z,10.23
2022-11-28T17:21:59.486Z,9.88
2022-11-28T17:24:35.851Z,15.37
2022-11-28T17:27:03.270Z,12.88
2022-11-28T17:29:30.060Z,9.90
2022-11-28T17:31:58.952Z,12.32
2022-11-28T17:34:28.516Z,9.30
2022-11-28T17:36:55.317Z,11.10
2022-11-28T17:39:21.975Z,10.20
2022-11-28T17:41:49.746Z,6.47
2022-11-28T17:44:21.873Z,8.63
2022-11-28T17:46:50.125Z,5.93
2022-11-28T17:49:18.240Z,6.07
2022-11-28T17:51:45.317Z,4.85
2022-11-28T17:54:17.757Z,3.35
2022-11-28T17:56:46.036Z,5.30
2022-11-28T17:59:14.367Z,3.60
2022-11-28T18:01:42.025Z,6.90
2022-11-28T18:04:09.320Z,4.00
2022-11-28T18:06:36.460Z,8.30
2022-11-28T18:09:11.415Z,9.45
2022-11-28T18:11:39.992Z,5.63
2022-11-28T18:14:07.606Z,5.50
2022-11-28T18:16:36.135Z,6.63
2022-11-28T18:19:04.247Z,5.30
2022-11-28T18:21:32.069Z,5.15
2022-11-28T18:23:58.922Z,6.35
2022-11-28T18:26:26.495Z,5.10
2022-11-28T18:28:54.219Z,6.03
2022-11-28T18:31:26.398Z,8.15
2022-11-28T18:34:00.286Z,5.10
2022-11-28T18:36:30.872Z,6.25
2022-11-28T18:38:59.790Z,7.30
2022-11-28T18:41:27.421Z,7.50
2022-11-28T18:44:04.995Z,4.45
2022-11-28T18:46:33.560Z,8.45
2022-11-28T18:49:01.012Z,3.72
2022-11-28T18:51:33.335Z,10.05
2022-11-28T18:54:04.170Z,7.82
2022-11-28T18:56:31.648Z,6.47
2022-11-28T18:58:59.062Z,9.98
2022-11-28T19:01:30.182Z,5.65
2022-11-28T19:04:02.867Z,7.80
2022-11-28T19:06:30.824Z,8.48
2022-11-28T19:08:59.610Z,8.63
2022-11-28T19:11:28.522Z,9.63
2022-11-28T19:14:21.844Z,6.45
2022-11-28T19:16:49.546Z,7.30
2022-11-28T19:19:17.852Z,9.27
2022-11-28T19:21:44.926Z,8.25
2022-11-28T19:24:12.917Z,8.43
2022-11-28T19:26:39.756Z,6.00
2022-11-28T19:29:07.021Z,7.80
2022-11-28T19:31:35.686Z,3.67
2022-11-28T19:34:11.383Z,6.50
2022-11-28T19:36:41.066Z,10.70
2022-11-28T19:39:12.113Z,4.97
2022-11-28T19:44:06.195Z,7.38
2022-11-28T19:46:35.728Z,8.70
2022-11-28T19:49:04.829Z,8.23
2022-11-28T19:51:31.632Z,8.75
2022-11-28T19:54:03.219Z,8.50
2022-11-28T19:56:32.436Z,8.45
2022-11-28T19:58:59.985Z,7.63
2022-11-28T20:01:28.221Z,8.77
2022-11-28T20:03:55.536Z,7.57
2022-11-28T20:06:25.732Z,6.55
2022-11-28T20:08:54.592Z,6.45
2022-11-28T20:11:24.677Z,5.45
2022-11-28T20:14:10.190Z,6.97
2022-11-28T20:16:37.808Z,8.25
2022-11-28T20:19:05.681Z,8.05
2022-11-28T20:21:33.709Z,6.18
2022-11-28T20:24:05.165Z,5.93
2022-11-28T20:26:40.515Z,3.67
2022-11-28T20:29:11.997Z,9.50
2022-11-28T20:31:45.480Z,5.75
2022-11-28T20:34:17.030Z,7.55
2022-11-28T20:36:45.979Z,7.00
2022-11-28T20:39:13.241Z,8.05
2022-11-28T20:41:39.993Z,3.42
2022-11-28T20:44:06.759Z,7.45
2022-11-28T20:46:35.533Z,6.70
2022-11-28T20:49:05.055Z,9.20
2022-11-28T20:51:33.513Z,10.32
2022-11-28T20:54:01.151Z,5.25
2022-11-28T20:56:30.838Z,4.82
2022-11-28T20:59:00.571Z,7.53
2022-11-28T21:01:30.727Z,8.40
2022-11-28T21:03:57.558Z,5.85
2022-11-28T21:06:24.784Z,10.30
2022-11-28T21:08:51.555Z,7.18
2022-11-28T21:14:15.597Z,5.07
2022-11-28T21:16:42.386Z,5.65
2022-11-28T21:19:09.544Z,7.25
2022-11-28T21:21:38.387Z,6.80
2022-11-28T21:24:08.727Z,5.00
2022-11-28T21:26:40.966Z,5.82
2022-11-28T21:29:11.980Z,4.25
2022-11-28T21:31:42.926Z,7.78
2022-11-28T21:34:14.388Z,7.32
2022-11-28T21:36:41.487Z,6.13
2022-11-28T21:39:11.885Z,4.32
2022-11-28T21:41:38.627Z,4.97
2022-11-28T21:44:05.470Z,10.63
2022-11-28T21:46:32.926Z,5.70
2022-11-28T21:48:59.853Z,5.32
2022-11-28T21:51:28.684Z,4.32
2022-11-28T21:53:57.606Z,4.93
2022-11-28T21:56:25.347Z,8.43
2022-11-28T21:58:53.539Z,6.00
2022-11-28T22:01:21.340Z,5.68
2022-11-28T22:03:48.495Z,5.75
2022-11-28T22:06:23.371Z,4.35
2022-11-28T22:08:51.653Z,7.68
2022-11-28T22:11:19.793Z,5.18
2022-11-28T22:13:47.586Z,5.20
2022-11-28T22:16:24.007Z,4.32
2022-11-28T22:18:52.923Z,6.88
2022-11-28T22:21:50.473Z,5.40
2022-11-28T22:24:08.189Z,6.28
2022-11-28T22:26:35.115Z,5.85
2022-11-28T22:29:04.170Z,8.05
2022-11-28T22:31:32.824Z,5.78
2022-11-28T22:33:59.985Z,7.47
2022-11-28T22:36:26.979Z,5.32
2022-11-28T22:38:55.966Z,13.00
2022-11-28T22:41:29.060Z,6.05
2022-11-28T22:44:01.158Z,6.55
2022-11-28T22:49:00.015Z,5.60
2022-11-28T22:51:28.262Z,9.38
2022-11-28T22:53:59.420Z,5.95
2022-11-28T22:56:28.485Z,5.63
2022-11-28T22:58:55.449Z,6.68
2022-11-28T23:01:29.971Z,6.45
2022-11-28T23:04:11.342Z,8.65
2022-11-28T23:07:38.257Z,5.45
2022-11-28T23:10:48.040Z,6.03
2022-11-28T23:13:36.828Z,9.70
2022-11-28T23:16:29.222Z,5.55
2022-11-28T23:20:00.616Z,9.15
2022-11-28T23:22:42.601Z,5.90
2022-11-28T23:25:33.027Z,4.68
2022-11-28T23:28:06.323Z,3.90
2022-11-28T23:34:21.107Z,8.88
2022-11-28T23:36:51.386Z,5.53
2022-11-28T23:43:26.620Z,2.45
2022-11-28T23:45:59.521Z,3.80
2022-11-28T23:52:53.809Z,5.45
2022-11-28T23:55:20.571Z,3.28
2022-11-28T23:57:47.469Z,2.85
